createdAt,value
2023-01-07T00:02:28.234Z,4142.3
2023-01-07T00:08:04.021Z,4138.6
2023-01-07T00:13:40.960Z,4140.8
2023-01-07T00:19:16.066Z,4138.3
2023-01-07T00:24:51.637Z,4139.6
2023-01-07T00:30:28.091Z,4138.1
2023-01-07T00:36:03.131Z,4136.7
2023-01-07T00:41:38.481Z,4139.4
2023-01-07T00:47:16.173Z,4142.4
2023-01-07T00:52:52.801Z,4137.4
2023-01-07T00:58:28.769Z,4140.8
2023-01-07T01:04:04.886Z,4135.4
2023-01-07T01:09:40.362Z,4136.2
2023-01-07T01:15:16.088Z,4134.7
2023-01-07T01:20:54.809Z,4138.4
2023-01-07T01:26:31.152Z,4133.1
2023-01-07T01:32:06.790Z,4136.6
2023-01-07T01:37:43.556Z,4130.9
2023-01-07T01:43:18.821Z,4132.6
2023-01-07T01:48:55.332Z,4134.2
2023-01-07T01:54:32.723Z,4134.1
2023-01-07T02:00:08.792Z,4135.7
2023-01-07T02:05:44.198Z,4137.1
2023-01-07T02:11:21.391Z,4136.4
2023-01-07T02:16:56.744Z,4131.4
2023-01-07T02:22:32.139Z,4133.7
2023-01-07T02:28:08.884Z,4131.9
2023-01-07T02:33:45.361Z,4132.7
2023-01-07T02:39:20.690Z,4132.4
2023-01-07T02:44:58.068Z,4130.2
2023-01-07T02:50:33.358Z,4129.2
2023-01-07T02:56:09.848Z,4129.5
2023-01-07T03:01:47.103Z,4127.9
2023-01-07T03:07:23.689Z,4130
2023-01-07T03:12:59.250Z,4130
2023-01-07T03:18:36.415Z,4128.2
2023-01-07T03:24:11.938Z,4127
2023-01-07T03:29:46.960Z,4126.5
2023-01-07T03:35:23.727Z,4126.2
2023-01-07T03:40:59.982Z,4128.5
2023-01-07T03:46:35.735Z,4127.7
2023-01-07T03:52:11.700Z,4127.7
2023-01-07T03:57:46.616Z,4126.9
2023-01-07T04:03:22.222Z,4124.7
2023-01-07T04:08:58.801Z,4127.9
2023-01-07T04:14:33.884Z,4126.4
2023-01-07T04:20:09.858Z,4127
2023-01-07T04:25:46.290Z,4125.4
2023-01-07T04:31:22.499Z,4130.7
2023-01-07T04:36:59.359Z,4124.5
2023-01-07T04:42:35.426Z,4123.7
2023-01-07T04:48:10.475Z,4123.7
2023-01-07T04:53:46.041Z,4123.3
2023-01-07T04:59:22.204Z,4120.2
2023-01-07T05:04:57.328Z,4124
2023-01-07T05:10:32.132Z,4120.7
2023-01-07T05:16:09.223Z,4121.7
2023-01-07T05:21:44.093Z,4122
2023-01-07T05:27:19.454Z,4120.2
2023-01-07T05:32:56.205Z,4120
2023-01-07T05:38:30.917Z,4120.2
2023-01-07T05:44:07.104Z,4123
2023-01-07T05:49:43.988Z,4124.9
2023-01-07T05:55:19.854Z,4122.7
2023-01-07T06:00:57.559Z,4121.7
2023-01-07T06:06:33.637Z,4120.5
2023-01-07T06:12:08.871Z,4121.7
2023-01-07T06:17:43.921Z,4120
2023-01-07T06:23:21.082Z,4120.8
2023-01-07T06:28:56.619Z,4117.8
2023-01-07T06:34:32.041Z,4121.3
2023-01-07T06:40:08.306Z,4119
2023-01-07T06:45:43.308Z,4119.7
2023-01-07T06:51:18.548Z,4117.1
2023-01-07T06:56:55.635Z,4117.7
2023-01-07T07:02:34.156Z,4117.8
2023-01-07T07:08:11.702Z,4111.8
2023-01-07T07:13:49.104Z,4116.5
2023-01-07T07:19:25.091Z,4112
2023-01-07T07:25:07.323Z,4115.6
2023-01-07T07:30:50.372Z,4115.6
2023-01-07T07:36:26.563Z,4110.6
2023-01-07T07:42:09.093Z,4112.1
2023-01-07T07:48:16.898Z,4110.1
2023-01-07T07:53:52.836Z,4121
2023-01-07T07:59:32.040Z,4137.4
2023-01-07T08:05:10.973Z,4170.9
2023-01-07T08:10:55.747Z,4173.6
2023-01-07T08:16:42.125Z,4187.3
2023-01-07T08:22:29.939Z,4189
2023-01-07T08:28:04.849Z,4190.9
2023-01-07T08:33:42.842Z,4174.3
2023-01-07T08:39:19.091Z,4183
2023-01-07T08:44:55.137Z,4196.2
2023-01-07T08:50:39.793Z,4205.3
2023-01-07T08:56:15.957Z,4183
2023-01-07T09:01:53.235Z,4195.5
2023-01-07T09:07:31.112Z,4196.9
2023-01-07T09:13:07.587Z,4198.2
2023-01-07T09:18:45.529Z,4209.6
2023-01-07T09:25:25.366Z,4196.7
2023-01-07T09:31:02.313Z,4189
2023-01-07T09:37:02.654Z,4187.8
2023-01-07T09:42:38.862Z,4216.1
2023-01-07T09:48:15.599Z,4208.1
2023-01-07T09:53:52.086Z,4207.8
2023-01-07T09:59:34.777Z,4208.1
2023-01-07T10:05:11.367Z,4214
2023-01-07T10:10:46.276Z,4206.6
2023-01-07T10:16:23.718Z,4208.9
2023-01-07T10:22:00.822Z,4218.8
2023-01-07T10:27:44.668Z,4191
2023-01-07T10:33:20.177Z,4196
2023-01-07T10:39:24.004Z,4212.1
2023-01-07T10:45:29.925Z,4213.6
2023-01-07T10:51:09.901Z,4212.1
2023-01-07T10:56:47.392Z,4218
2023-01-07T11:02:24.959Z,4211.8
2023-01-07T11:08:03.042Z,4196.5
2023-01-07T11:13:51.476Z,4210.8
2023-01-07T11:19:26.578Z,4206.1
2023-01-07T11:25:02.336Z,4198.4
2023-01-07T11:30:38.196Z,4213.3
2023-01-07T11:36:23.599Z,4220.8
2023-01-07T11:42:20.689Z,4216.1
2023-01-07T11:48:18.438Z,4184.3
2023-01-07T11:54:04.066Z,4211.6
2023-01-07T11:59:48.355Z,4205.1
2023-01-07T12:06:27.047Z,4186.8
2023-01-07T12:12:11.500Z,4175.9
2023-01-07T12:17:47.277Z,4184.1
2023-01-07T12:23:24.009Z,4183.1
2023-01-07T12:29:01.906Z,4181.8
2023-01-07T12:34:46.271Z,4179.5
2023-01-07T12:40:23.139Z,4185.2
2023-01-07T12:45:59.033Z,4180
2023-01-07T12:51:38.823Z,4186.2
2023-01-07T12:57:15.597Z,4183.8
2023-01-07T13:03:07.038Z,4182.8
2023-01-07T13:08:47.226Z,4179
2023-01-07T13:14:33.429Z,4184.2
2023-01-07T13:20:09.289Z,4193
2023-01-07T13:25:44.492Z,4210.6
2023-01-07T13:31:25.249Z,4206.8
2023-01-07T13:37:06.998Z,4217.8
2023-01-07T13:42:42.400Z,4208.1
2023-01-07T13:48:21.857Z,4201.2
2023-01-07T13:53:57.701Z,4196
2023-01-07T13:59:34.797Z,4215.3
2023-01-07T14:05:11.600Z,4198.4
2023-01-07T14:10:49.364Z,4198.7
2023-01-07T14:16:30.732Z,4200.1
2023-01-07T14:22:07.572Z,4208.8
2023-01-07T14:27:43.693Z,4200.2
2023-01-07T14:33:19.229Z,4205.3
2023-01-07T14:38:58.831Z,4208.6
2023-01-07T14:44:49.483Z,4210.8
2023-01-07T14:50:25.429Z,4199.7
2023-01-07T14:56:01.965Z,4209.8
2023-01-07T15:01:39.435Z,4215.3
2023-01-07T15:07:21.293Z,4199.6
2023-01-07T15:12:58.486Z,4201.6
2023-01-07T15:18:33.480Z,4192.9
2023-01-07T15:24:18.228Z,4198.6
2023-01-07T15:29:55.504Z,4189.5
2023-01-07T15:35:30.541Z,4188.7
2023-01-07T15:41:06.075Z,4187.3
2023-01-07T15:46:44.286Z,4175.1
2023-01-07T15:52:51.212Z,4178.6
2023-01-07T15:58:28.120Z,4176.6
2023-01-07T16:04:16.082Z,4172.9
2023-01-07T16:09:51.463Z,4173.8
2023-01-07T16:15:31.095Z,4173.8
2023-01-07T16:21:16.222Z,4172.6
2023-01-07T16:26:51.228Z,4171.9
2023-01-07T16:32:26.717Z,4172.3
2023-01-07T16:38:08.374Z,4172.1
2023-01-07T16:43:43.762Z,4173.8
2023-01-07T16:49:19.319Z,4172.6
2023-01-07T16:55:05.568Z,4170.1
2023-01-07T17:00:44.750Z,4169.1
2023-01-07T17:06:21.955Z,4166.9
2023-01-07T17:11:59.651Z,4169.9
2023-01-07T17:17:34.734Z,4169.2
2023-01-07T17:23:13.620Z,4163
2023-01-07T17:29:37.367Z,4164.6
2023-01-07T17:35:16.522Z,4165.7
2023-01-07T17:40:54.968Z,4164.6
2023-01-07T17:46:32.016Z,4165.4
2023-01-07T17:52:08.426Z,4162
2023-01-07T17:57:46.012Z,4164.7
2023-01-07T18:03:22.466Z,4163
2023-01-07T18:09:42.571Z,4163.7
2023-01-07T18:15:24.605Z,4161.4
2023-01-07T18:21:10.797Z,4163.9
2023-01-07T18:26:47.532Z,4164.9
2023-01-07T18:32:23.615Z,4162.7
2023-01-07T18:38:20.145Z,4160.7
2023-01-07T18:50:26.952Z,4159
2023-01-07T18:56:42.001Z,4162
2023-01-07T19:02:32.919Z,4159.2
2023-01-07T19:08:23.585Z,4156.5
2023-01-07T19:14:00.613Z,4161.5
2023-01-07T19:20:05.518Z,4157.5
2023-01-07T19:26:02.205Z,4159.7
2023-01-07T19:31:39.136Z,4158.9
2023-01-07T19:37:22.955Z,4155.8
2023-01-07T19:42:58.730Z,4156.3
2023-01-07T19:48:35.208Z,4154.5
2023-01-07T19:54:09.934Z,4156.2
2023-01-07T19:59:56.449Z,4156.2
2023-01-07T20:05:59.213Z,4152.7
2023-01-07T20:11:36.816Z,4156.5
2023-01-07T20:17:39.342Z,4159
2023-01-07T20:23:24.322Z,4156
2023-01-07T20:29:02.817Z,4155.3
2023-01-07T20:34:44.506Z,4152.8
2023-01-07T20:40:21.364Z,4159.2
2023-01-07T20:45:58.085Z,4152.3
2023-01-07T20:51:35.515Z,4152.3
2023-01-07T20:57:11.409Z,4153.7
2023-01-07T21:02:48.003Z,4156.5
2023-01-07T21:08:23.417Z,4152.8
2023-01-07T21:14:03.793Z,4150.6
2023-01-07T21:19:38.996Z,4152
2023-01-07T21:25:22.759Z,4154.2
2023-01-07T21:32:44.490Z,4150.5
2023-01-07T21:38:21.171Z,4151.3
2023-01-07T21:44:00.744Z,4152.8
2023-01-07T21:49:37.191Z,4151.7
2023-01-07T21:55:16.686Z,4151.2
2023-01-07T22:00:54.344Z,4150.6
2023-01-07T22:06:32.037Z,4151.7
2023-01-07T22:12:07.192Z,4150.5
2023-01-07T22:17:42.466Z,4151.3
2023-01-07T22:23:25.695Z,4151.3
2023-01-07T22:29:04.554Z,4150
2023-01-07T22:34:54.076Z,4149.5
2023-01-07T22:40:30.520Z,4148.3
2023-01-07T22:47:06.093Z,4150.1
2023-01-07T22:53:04.160Z,4148
2023-01-07T22:58:40.480Z,4147.5
2023-01-07T23:04:16.458Z,4147.6
2023-01-07T23:09:53.503Z,4147.3
2023-01-07T23:15:30.251Z,4149.1
2023-01-07T23:21:05.138Z,4147.3
2023-01-07T23:27:02.368Z,4149.6
2023-01-07T23:32:38.348Z,4147.3
2023-01-07T23:38:15.291Z,4148.3
2023-01-07T23:44:07.472Z,4147.1
2023-01-07T23:50:09.769Z,4146.1
2023-01-07T23:55:48.299Z,4146.8
